Time;durP1;ratioP1;P1;durP2;ratioP2;P2;SDS_P1;SDS_P2;PMS_P1;PMS_P2;Temp;Humidity;BMP_temperature;BMP_pressure;BME280_temperature;BME280_humidity;BME280_pressure;Samples;Min_cycle;Max_cycle;Signal;HPM_P1;HPM_P2
2023/03/03 00:00:38;;;;;;;18.00;10.15;;;;;;;5.06;79.78;101748.03;4994840;28;20037;-82
2023/03/03 00:03:05;;;;;;;17.55;10.57;;;;;;;5.24;78.89;101765.00;4977830;28;20030;-83
2023/03/03 00:05:32;;;;;;;19.23;9.48;;;;;;;5.05;78.87;101743.78;4978175;28;20030;-82
2023/03/03 00:07:58;;;;;;;12.20;7.80;;;;;;;5.07;79.05;101742.88;4978176;28;20026;-83
2023/03/03 00:10:23;;;;;;;27.95;11.38;;;;;;;5.14;78.82;101746.25;4994066;28;20026;-83
2023/03/03 00:12:49;;;;;;;13.30;8.80;;;;;;;5.15;78.11;101741.13;4993395;28;20029;-82
2023/03/03 00:15:16;;;;;;;27.73;12.82;;;;;;;5.18;77.79;101753.91;4994028;28;20561;-83
2023/03/03 00:17:42;;;;;;;29.80;12.77;;;;;;;5.15;78.88;101750.53;4993691;28;20116;-83
2023/03/03 00:20:40;;;;;;;22.92;12.40;;;;;;;5.19;78.93;101755.59;4993854;28;20096;-82
2023/03/03 00:23:11;;;;;;;19.40;11.13;;;;;;;5.19;78.48;101757.31;4988318;28;20042;-82
2023/03/03 00:25:37;;;;;;;15.40;8.43;;;;;;;5.15;78.55;101745.41;5010279;28;20053;-82
2023/03/03 00:28:18;;;;;;;18.98;10.38;;;;;;;5.12;78.13;101750.56;4994081;28;20037;-82
2023/03/03 00:30:43;;;;;;;10.63;8.50;;;;;;;5.18;77.97;101747.94;5010009;28;20487;-82
2023/03/03 00:33:31;;;;;;;13.73;9.05;;;;;;;5.06;78.20;101730.09;4993886;28;20029;-82
2023/03/03 00:36:12;;;;;;;16.63;8.82;;;;;;;5.01;78.55;101716.44;4978225;28;20053;-82
2023/03/03 00:38:37;;;;;;;17.33;10.15;;;;;;;5.12;78.54;101727.47;5009952;28;20484;-82
2023/03/03 00:41:04;;;;;;;18.30;8.55;;;;;;;5.22;78.37;101726.53;5010167;28;20037;-82
2023/03/03 00:43:34;;;;;;;15.10;9.73;;;;;;;5.21;78.92;101735.09;4993690;28;20033;-82
2023/03/03 00:45:59;;;;;;;19.20;9.68;;;;;;;5.17;78.04;101724.00;4976982;28;20583;-82
2023/03/03 00:48:27;;;;;;;29.55;10.73;;;;;;;5.25;78.43;101728.22;4977422;28;20034;-82
2023/03/03 00:50:54;;;;;;;21.02;11.00;;;;;;;5.26;78.06;101717.94;4977580;28;20041;-82
2023/03/03 00:53:20;;;;;;;17.67;9.18;;;;;;;5.24;77.99;101719.66;5010034;28;20038;-83
2023/03/03 00:55:47;;;;;;;12.98;7.93;;;;;;;5.27;78.12;101722.19;4993763;28;20543;-82
2023/03/03 00:58:12;;;;;;;18.42;11.02;;;;;;;5.25;78.27;101721.34;4977462;28;20026;-83
2023/03/03 01:00:38;;;;;;;17.23;12.13;;;;;;;5.18;78.23;101702.59;4993445;28;20128;-82
2023/03/03 01:03:06;;;;;;;30.48;13.23;;;;;;;5.24;78.03;101719.66;4993288;28;20026;-82
2023/03/03 01:05:32;;;;;;;15.00;9.27;;;;;;;5.19;77.61;101699.16;4993498;28;20022;-82
2023/03/03 01:07:57;;;;;;;11.57;8.50;;;;;;;5.08;78.27;101680.47;4993619;28;20033;-82
2023/03/03 01:10:23;;;;;;;13.15;8.27;;;;;;;5.18;78.61;101705.16;5009536;28;20057;-83
2023/03/03 01:12:48;;;;;;;19.70;10.18;;;;;;;5.06;78.35;101683.91;4977320;28;20065;-82
2023/03/03 01:15:14;;;;;;;18.50;9.10;;;;;;;5.14;78.20;101694.97;4993149;28;20026;-82
2023/03/03 01:17:40;;;;;;;14.93;8.43;;;;;;;5.09;77.76;101687.28;5009778;28;20402;-82
2023/03/03 01:20:07;;;;;;;13.20;10.15;;;;;;;5.05;79.41;101693.31;4993460;28;20084;-82
2023/03/03 01:22:33;;;;;;;16.02;10.95;;;;;;;4.98;79.60;101701.94;4977499;28;20022;-82
2023/03/03 01:24:58;;;;;;;14.88;9.95;;;;;;;4.62;80.15;101644.13;4997329;28;20041;-82
2023/03/03 01:27:24;;;;;;;14.82;8.32;;;;;;;4.89;79.89;101684.91;5013834;28;20026;-82
2023/03/03 01:29:49;;;;;;;11.20;8.27;;;;;;;4.82;79.99;101680.72;4997055;28;20021;-82
2023/03/03 01:32:14;;;;;;;16.35;10.57;;;;;;;4.82;80.43;101687.56;4997600;28;20037;-82
2023/03/03 01:34:40;;;;;;;11.52;8.30;;;;;;;4.90;80.61;101683.19;4981001;28;20025;-82
2023/03/03 01:37:05;;;;;;;17.90;11.25;;;;;;;4.88;80.28;101675.53;4980850;28;20057;-82
2023/03/03 01:39:31;;;;;;;13.43;9.30;;;;;;;4.84;80.67;101675.56;4996925;28;20034;-82
2023/03/03 01:41:56;;;;;;;12.43;7.72;;;;;;;4.82;81.53;101675.59;5013439;28;20407;-82
2023/03/03 01:44:22;;;;;;;24.27;11.98;;;;;;;4.83;80.71;101669.59;5012849;28;20026;-82
2023/03/03 01:46:51;;;;;;;16.50;11.85;;;;;;;4.75;80.08;101632.91;4997108;28;20030;-82
2023/03/03 01:49:32;;;;;;;13.73;9.57;;;;;;;4.89;80.54;101661.84;5013299;28;20026;-82
2023/03/03 01:52:00;;;;;;;9.10;7.07;;;;;;;4.87;80.34;101652.47;4997584;28;20021;-82
2023/03/03 01:54:32;;;;;;;18.90;9.75;;;;;;;4.81;80.67;101643.09;4980712;28;20025;-82
2023/03/03 01:57:00;;;;;;;21.67;9.48;;;;;;;4.84;80.77;101642.25;4997239;28;20116;-82
2023/03/03 01:59:32;;;;;;;16.67;8.10;;;;;;;4.99;80.32;101664.31;4996740;28;20579;-82
2023/03/03 02:01:57;;;;;;;13.02;8.15;;;;;;;4.84;80.54;101652.50;4980617;28;20040;-83
2023/03/03 02:04:25;;;;;;;14.35;10.90;;;;;;;4.93;79.97;101661.81;4996770;28;20026;-82
2023/03/03 02:06:53;;;;;;;18.08;10.82;;;;;;;4.80;80.11;101664.47;4996562;28;20050;-82
2023/03/03 02:09:31;;;;;;;13.73;7.43;;;;;;;4.94;80.05;101653.25;4980544;28;20034;-82
2023/03/03 02:11:58;;;;;;;15.73;7.50;;;;;;;4.96;79.88;101648.97;5012464;28;20018;-82
2023/03/03 02:14:24;;;;;;;12.80;8.85;;;;;;;4.80;80.25;101635.41;4996621;28;20084;-82
2023/03/03 02:16:49;;;;;;;14.93;7.72;;;;;;;4.93;80.08;101664.38;4980177;28;20447;-82
2023/03/03 02:19:31;;;;;;;16.58;9.18;;;;;;;4.86;80.12;101661.88;4980111;28;20037;-82
2023/03/03 02:21:56;;;;;;;21.38;10.15;;;;;;;4.79;79.77;101644.84;5012731;28;20030;-82
2023/03/03 02:24:27;;;;;;;13.75;8.48;;;;;;;4.81;79.76;101637.97;4980020;28;20036;-82
2023/03/03 02:26:53;;;;;;;16.00;7.35;;;;;;;5.01;79.16;101649.75;4996133;28;20419;-82
2023/03/03 02:29:18;;;;;;;12.30;8.20;;;;;;;4.96;79.23;101638.72;4996179;28;20033;-82
2023/03/03 02:31:44;;;;;;;12.32;8.95;;;;;;;4.95;79.72;101634.44;5012421;28;20034;-82
2023/03/03 02:34:09;;;;;;;16.15;8.82;;;;;;;5.02;79.70;101641.22;4995815;28;20034;-82
2023/03/03 02:36:36;;;;;;;14.02;9.80;;;;;;;4.94;79.99;101637.88;4995773;28;20065;-82
2023/03/03 02:39:25;;;;;;;16.00;9.52;;;;;;;4.90;79.52;101630.19;4979831;28;20036;-82
2023/03/03 02:42:11;;;;;;;18.33;10.30;;;;;;;4.81;79.52;101630.28;4996256;28;20041;-82
2023/03/03 02:44:37;;;;;;;22.30;10.88;;;;;;;4.80;79.77;101625.16;5012101;28;20040;-82
2023/03/03 02:47:02;;;;;;;17.35;11.27;;;;;;;4.73;80.01;101621.84;5012353;28;20038;-83
2023/03/03 02:49:30;;;;;;;15.90;10.52;;;;;;;4.88;79.80;101633.66;5012121;28;20034;-82
2023/03/03 02:51:56;;;;;;;16.40;10.13;;;;;;;4.89;79.89;101637.91;4980040;28;20613;-83
2023/03/03 02:54:23;;;;;;;25.42;9.60;;;;;;;4.90;79.86;101627.63;4979557;28;20037;-83
2023/03/03 02:56:48;;;;;;;15.95;8.50;;;;;;;4.82;80.76;101624.31;5011705;28;20026;-82
2023/03/03 02:59:14;;;;;;;20.98;9.75;;;;;;;4.89;80.75;101635.34;4979386;28;20022;-82
2023/03/03 03:01:39;;;;;;;20.17;9.63;;;;;;;4.97;80.10;101636.13;4979441;28;20431;-82
2023/03/03 03:04:15;;;;;;;20.15;12.20;;;;;;;4.95;79.94;101613.94;4995708;28;20040;-82
2023/03/03 03:06:41;;;;;;;37.80;12.20;;;;;;;4.98;79.96;101630.13;4979083;28;20088;-82
2023/03/03 03:09:07;;;;;;;15.23;9.50;;;;;;;4.86;80.98;101625.97;4995229;28;20057;-82
2023/03/03 03:11:34;;;;;;;20.27;9.55;;;;;;;4.92;80.39;101629.31;4995063;28;20072;-82
2023/03/03 03:13:59;;;;;;;17.23;10.35;;;;;;;4.90;80.63;101626.78;5011726;28;20026;-82
2023/03/03 03:16:25;;;;;;;24.75;12.02;;;;;;;4.86;80.89;101623.41;4979188;28;20160;-82
2023/03/03 03:18:50;;;;;;;16.02;9.68;;;;;;;4.79;81.08;101624.31;4995160;28;20037;-83
2023/03/03 03:21:16;;;;;;;20.73;10.82;;;;;;;4.78;81.24;101614.09;4979154;28;20100;-82
2023/03/03 03:23:41;;;;;;;29.13;10.27;;;;;;;4.67;81.38;101609.06;4995014;28;20022;-82
2023/03/03 03:26:07;;;;;;;12.38;7.47;;;;;;;4.81;81.29;101622.59;5010919;28;20037;-82
2023/03/03 03:28:32;;;;;;;12.75;10.65;;;;;;;4.81;80.65;101612.31;4994836;28;20384;-83
2023/03/03 03:30:58;;;;;;;23.88;11.05;;;;;;;4.74;81.11;101597.03;4994816;28;20056;-82
2023/03/03 03:33:23;;;;;;;19.52;9.45;;;;;;;4.71;80.66;101597.91;5011350;28;20523;-82
2023/03/03 03:35:49;;;;;;;16.25;10.25;;;;;;;4.83;81.11;101615.75;4994951;28;20030;-82
2023/03/03 03:38:15;;;;;;;12.63;9.32;;;;;;;4.87;80.46;101611.44;4994886;28;20040;-82
2023/03/03 03:40:40;;;;;;;18.25;10.18;;;;;;;4.84;80.24;101602.06;4994611;28;20057;-82
2023/03/03 03:43:06;;;;;;;15.90;8.88;;;;;;;4.87;79.71;101607.16;4978592;28;20034;-82
2023/03/03 03:45:31;;;;;;;24.20;9.48;;;;;;;4.76;79.54;101596.16;4994773;28;20069;-82
2023/03/03 03:47:57;;;;;;;20.73;11.55;;;;;;;4.74;80.34;101605.59;4977588;28;20112;-82
2023/03/03 03:50:22;;;;;;;18.23;8.93;;;;;;;4.78;79.71;101607.25;4978424;28;20034;-82
2023/03/03 03:52:48;;;;;;;18.92;10.18;;;;;;;4.77;79.91;101602.13;5011280;28;20034;-82
2023/03/03 03:55:13;;;;;;;13.90;9.13;;;;;;;4.70;80.09;101603.91;5010656;28;20034;-82
2023/03/03 03:57:40;;;;;;;15.90;10.35;;;;;;;4.70;80.09;101598.75;4994701;28;20036;-82
2023/03/03 04:00:07;;;;;;;15.77;10.70;;;;;;;4.59;80.53;101565.53;4978461;28;20026;-82
2023/03/03 04:02:33;;;;;;;27.30;13.20;;;;;;;4.76;80.24;101591.03;4994699;28;20026;-82
2023/03/03 04:04:58;;;;;;;16.20;10.02;;;;;;;4.69;80.83;101576.56;4994519;28;20033;-82
2023/03/03 04:07:24;;;;;;;20.85;12.45;;;;;;;4.70;80.28;101588.50;4994352;28;20435;-82
2023/03/03 04:09:49;;;;;;;19.83;10.02;;;;;;;4.60;80.15;101576.66;5010362;28;20044;-82
2023/03/03 04:12:15;;;;;;;21.95;11.45;;;;;;;4.66;80.38;101594.53;4994428;28;20025;-82
2023/03/03 04:14:40;;;;;;;14.80;9.82;;;;;;;4.69;80.78;101594.50;4978043;28;20030;-82
2023/03/03 04:17:06;;;;;;;19.30;10.10;;;;;;;4.63;80.54;101566.38;4993944;28;20030;-82
2023/03/03 04:19:31;;;;;;;26.90;11.30;;;;;;;4.57;80.31;101562.16;4977953;28;20033;-82
2023/03/03 04:21:57;;;;;;;22.42;9.82;;;;;;;4.75;80.17;101580.78;4994284;28;20407;-82
2023/03/03 04:24:22;;;;;;;21.13;9.57;;;;;;;4.68;79.79;101571.47;5010156;28;20033;-82
2023/03/03 04:26:48;;;;;;;23.70;11.43;;;;;;;4.75;79.57;101580.78;4993994;28;20034;-83
2023/03/03 04:29:13;;;;;;;19.35;10.73;;;;;;;4.77;80.08;101591.88;5010254;28;20109;-82
2023/03/03 04:31:38;;;;;;;16.58;11.15;;;;;;;4.78;79.97;101591.84;4977787;28;20037;-82
2023/03/03 04:34:04;;;;;;;14.55;8.60;;;;;;;4.85;80.17;101587.53;4994037;28;20030;-82
2023/03/03 04:36:29;;;;;;;18.20;8.82;;;;;;;4.79;79.89;101587.56;4993884;28;20554;-82
2023/03/03 04:38:55;;;;;;;18.58;9.50;;;;;;;4.64;79.49;101557.84;4993397;28;20025;-82
2023/03/03 04:41:20;;;;;;;28.63;11.05;;;;;;;4.81;79.41;101594.38;5010219;28;20030;-83
2023/03/03 04:43:46;;;;;;;15.60;10.65;;;;;;;4.86;79.57;101590.06;4977608;28;20030;-82
2023/03/03 04:46:11;;;;;;;16.30;10.75;;;;;;;4.77;79.70;101585.03;4977352;28;20522;-82
2023/03/03 04:48:37;;;;;;;13.85;10.13;;;;;;;4.76;79.36;101574.81;4993439;28;20042;-82
2023/03/03 04:51:03;;;;;;;14.13;10.27;;;;;;;4.73;79.04;101562.88;5009737;28;20026;-83
2023/03/03 04:53:28;;;;;;;15.00;9.77;;;;;;;4.77;79.57;101582.47;5009752;28;20096;-82
2023/03/03 04:55:54;;;;;;;20.77;9.40;;;;;;;4.67;79.58;101568.03;4993666;28;20380;-82
2023/03/03 04:58:19;;;;;;;20.42;10.93;;;;;;;4.68;79.75;101569.75;4993232;28;20101;-82
2023/03/03 05:00:46;;;;;;;16.27;10.05;;;;;;;4.74;79.91;101579.09;4993305;28;20032;-82
2023/03/03 05:03:11;;;;;;;12.55;9.40;;;;;;;4.80;79.12;101586.72;4977356;28;20053;-82
2023/03/03 05:05:37;;;;;;;17.50;11.85;;;;;;;4.68;79.17;101572.31;4993033;28;20112;-83
2023/03/03 05:08:04;;;;;;;14.00;8.93;;;;;;;4.71;79.61;101579.97;4993616;28;20412;-82
2023/03/03 05:10:29;;;;;;;16.83;10.75;;;;;;;4.69;79.34;101578.28;4993559;28;20040;-82
2023/03/03 05:12:55;;;;;;;19.30;11.10;;;;;;;4.59;79.73;101569.81;5009751;28;20041;-82
2023/03/03 05:15:20;;;;;;;18.95;11.30;;;;;;;4.76;79.53;101583.34;4977188;28;20026;-82
2023/03/03 05:17:45;;;;;;;23.30;10.65;;;;;;;4.63;79.35;101568.09;4977112;28;20462;-82
2023/03/03 05:20:11;;;;;;;25.90;12.25;;;;;;;4.55;79.39;101550.22;4992832;28;20026;-83
2023/03/03 05:22:37;;;;;;;13.93;10.05;;;;;;;4.46;79.36;101529.81;5009675;28;20045;-82
2023/03/03 05:25:03;;;;;;;13.30;9.18;;;;;;;4.83;79.34;101584.13;5009353;28;20029;-82
2023/03/03 05:27:28;;;;;;;19.70;10.57;;;;;;;4.68;79.01;101574.88;4993381;28;20029;-83
2023/03/03 05:29:54;;;;;;;13.38;7.00;;;;;;;4.80;79.04;101574.75;4977057;28;20030;-82
2023/03/03 05:32:19;;;;;;;14.15;9.35;;;;;;;4.73;79.80;101569.72;4993353;28;20034;-82
2023/03/03 05:34:45;;;;;;;13.90;10.20;;;;;;;4.85;80.33;101578.13;4992836;28;20426;-83
2023/03/03 05:37:10;;;;;;;15.77;9.15;;;;;;;4.95;79.41;101573.75;4993111;28;20034;-82
2023/03/03 05:39:36;;;;;;;18.45;10.70;;;;;;;4.90;78.97;101571.22;5009297;28;20034;-82
2023/03/03 05:42:01;;;;;;;32.45;12.80;;;;;;;4.79;79.24;101544.84;4993281;28;20487;-82
2023/03/03 05:44:27;;;;;;;20.85;10.32;;;;;;;4.91;79.49;101569.50;5009409;28;20033;-82
2023/03/03 05:46:52;;;;;;;16.70;9.05;;;;;;;4.92;78.41;101567.78;4993090;28;20018;-83
2023/03/03 05:49:18;;;;;;;21.80;11.20;;;;;;;4.98;78.50;101578.84;4976604;28;20034;-82
2023/03/03 05:51:43;;;;;;;16.75;10.60;;;;;;;4.82;77.82;101557.66;4993200;28;20029;-82
2023/03/03 05:54:09;;;;;;;18.17;11.50;;;;;;;4.97;78.57;101573.72;5009060;28;20034;-83
2023/03/03 05:56:34;;;;;;;22.05;11.20;;;;;;;5.10;78.07;101577.84;4992860;28;20076;-83
2023/03/03 05:58:59;;;;;;;19.35;12.43;;;;;;;5.06;78.29;101581.31;5009065;28;20030;-83
2023/03/03 06:01:26;;;;;;;26.40;10.63;;;;;;;5.11;78.19;101574.41;4976711;28;20415;-83
2023/03/03 06:03:51;;;;;;;22.48;10.00;;;;;;;5.13;77.59;101562.44;5009127;28;20503;-83
2023/03/03 06:06:18;;;;;;;19.10;11.80;;;;;;;5.16;77.69;101580.34;4976666;28;20050;-82
2023/03/03 06:08:43;;;;;;;21.65;12.40;;;;;;;5.18;77.16;101586.31;4976856;28;20076;-82
2023/03/03 06:11:09;;;;;;;17.50;11.43;;;;;;;5.05;77.41;101569.38;4995415;28;20030;-82
2023/03/03 06:13:34;;;;;;;30.65;15.18;;;;;;;5.10;77.99;101586.38;4996430;28;20041;-82
2023/03/03 06:16:00;;;;;;;19.55;11.65;;;;;;;5.13;77.87;101590.66;4980161;28;20092;-82
2023/03/03 06:18:25;;;;;;;25.80;11.55;;;;;;;5.12;78.34;101576.13;5012304;28;20037;-82
2023/03/03 06:20:52;;;;;;;22.30;12.40;;;;;;;5.10;78.01;101577.84;4980196;28;20033;-82
2023/03/03 06:23:17;;;;;;;17.67;12.48;;;;;;;5.21;77.46;101596.56;4996366;28;20483;-82
2023/03/03 06:25:43;;;;;;;24.50;12.73;;;;;;;5.18;78.32;101594.00;5012333;28;20033;-82
2023/03/03 06:28:08;;;;;;;17.08;11.73;;;;;;;5.09;77.76;101573.59;4996421;28;20404;-82
2023/03/03 06:30:34;;;;;;;17.77;10.88;;;;;;;5.19;78.21;101593.13;4995989;28;20030;-82
2023/03/03 06:32:59;;;;;;;24.17;12.68;;;;;;;5.09;77.11;101586.41;4995575;28;20033;-82
2023/03/03 06:35:25;;;;;;;20.00;10.20;;;;;;;5.04;77.32;101557.41;4996085;28;20033;-82
2023/03/03 06:37:50;;;;;;;20.73;11.10;;;;;;;5.10;78.67;101577.84;4979724;28;20509;-83
2023/03/03 06:40:16;;;;;;;16.13;11.15;;;;;;;5.20;78.49;101589.69;5012376;28;20037;-82
2023/03/03 06:42:41;;;;;;;19.17;10.18;;;;;;;5.21;77.79;101594.00;4996037;28;20026;-82
2023/03/03 06:45:07;;;;;;;18.55;11.00;;;;;;;5.21;77.74;101572.59;4979390;28;20029;-82
2023/03/03 06:47:33;;;;;;;28.80;10.75;;;;;;;5.21;77.87;101590.56;4995546;28;20028;-83
2023/03/03 06:49:58;;;;;;;21.80;11.18;;;;;;;5.27;78.29;101591.34;4995892;28;20037;-83
2023/03/03 06:52:25;;;;;;;16.17;9.50;;;;;;;5.31;78.39;101593.03;4979582;28;20538;-82
2023/03/03 06:54:56;;;;;;;21.13;10.57;;;;;;;5.31;77.54;101574.19;4979654;28;20022;-83
2023/03/03 06:57:27;;;;;;;30.50;11.18;;;;;;;5.51;76.82;101594.50;4996218;28;20053;-83
2023/03/03 06:59:54;;;;;;;23.15;9.77;;;;;;;5.60;76.45;101599.47;5012134;28;20033;-82
2023/03/03 07:02:20;;;;;;;16.35;10.48;;;;;;;5.47;75.94;101573.97;4979182;28;20025;-83
2023/03/03 07:04:48;;;;;;;28.15;12.68;;;;;;;5.59;76.45;101592.66;4979287;28;20062;-82
2023/03/03 07:07:21;;;;;;;22.95;12.93;;;;;;;5.61;75.71;101596.06;4995816;28;20041;-82
2023/03/03 07:09:48;;;;;;;30.95;13.43;;;;;;;5.62;75.71;101584.94;4995398;28;20161;-82
2023/03/03 07:12:21;;;;;;;20.63;12.98;;;;;;;5.68;75.49;101587.41;4979071;28;20040;-82
2023/03/03 07:14:54;;;;;;;17.85;9.25;;;;;;;5.79;75.38;101600.94;4995610;28;20492;-82
2023/03/03 07:17:21;;;;;;;17.95;10.70;;;;;;;5.87;73.95;101599.13;4979608;28;20033;-82
2023/03/03 07:19:46;;;;;;;22.83;12.48;;;;;;;5.76;74.08;101601.00;4995322;28;20462;-82
2023/03/03 07:22:20;;;;;;;15.68;8.52;;;;;;;5.77;73.12;101597.56;4978812;28;20037;-82
2023/03/03 07:24:47;;;;;;;16.30;11.18;;;;;;;5.81;74.35;101599.22;4979284;28;20025;-82
2023/03/03 07:27:26;;;;;;;21.35;11.73;;;;;;;5.88;74.32;101592.25;4994931;28;20026;-82
2023/03/03 07:29:53;;;;;;;23.98;9.50;;;;;;;5.90;72.86;101588.84;4980072;28;20029;-82
2023/03/03 07:32:25;;;;;;;17.63;11.85;;;;;;;5.97;72.64;101590.44;5010747;28;20037;-82
2023/03/03 07:34:51;;;;;;;17.98;10.57;;;;;;;6.02;72.30;101591.25;4995531;28;20029;-82
2023/03/03 07:37:23;;;;;;;20.30;8.85;;;;;;;5.87;70.72;101563.16;4995255;28;20049;-82
2023/03/03 07:39:49;;;;;;;30.23;13.20;;;;;;;5.98;70.93;101576.72;4995193;28;20073;-82
2023/03/03 07:42:28;;;;;;;23.25;12.98;;;;;;;5.90;71.41;101581.16;4978678;28;20352;-82
2023/03/03 07:44:55;;;;;;;13.90;10.68;;;;;;;5.97;71.85;101569.91;4995421;28;20026;-83
2023/03/03 07:47:30;;;;;;;20.02;12.20;;;;;;;5.84;72.36;101560.66;4978367;28;20455;-82
2023/03/03 07:50:00;;;;;;;23.80;11.82;;;;;;;6.01;72.66;101569.00;4994922;28;20067;-83
2023/03/03 07:52:36;;;;;;;21.98;11.85;;;;;;;6.07;72.01;101572.34;4978417;28;20398;-82
2023/03/03 07:55:02;;;;;;;18.40;8.20;;;;;;;6.02;71.51;101567.28;4979068;28;20032;-82
2023/03/03 07:57:36;;;;;;;20.27;12.57;;;;;;;5.99;70.82;101560.44;4994512;28;20041;-82
2023/03/03 08:00:08;;;;;;;17.17;10.77;;;;;;;6.19;71.14;101577.28;5010356;28;20027;-82
2023/03/03 08:02:44;;;;;;;18.77;9.02;;;;;;;6.29;71.47;101581.41;5011146;28;20037;-82
2023/03/03 08:05:27;;;;;;;16.67;9.50;;;;;;;6.09;70.15;101544.88;4994750;28;20030;-82
2023/03/03 08:07:52;;;;;;;14.07;10.90;;;;;;;6.13;69.77;101567.09;5010554;28;20038;-82
2023/03/03 08:10:33;;;;;;;20.30;10.43;;;;;;;6.33;70.17;101578.75;4994407;28;20462;-82
2023/03/03 08:12:59;;;;;;;22.75;10.95;;;;;;;6.25;69.87;101561.78;5010351;28;20025;-82
2023/03/03 08:15:29;;;;;;;25.80;12.13;;;;;;;6.33;69.63;101575.34;4977741;28;20510;-82
2023/03/03 08:17:55;;;;;;;19.88;10.95;;;;;;;6.23;68.71;101571.22;5010216;28;20032;-82
2023/03/03 08:20:37;;;;;;;18.85;12.55;;;;;;;6.28;68.88;101561.72;5010566;28;20026;-82
2023/03/03 08:23:02;;;;;;;16.38;10.43;;;;;;;6.34;67.90;101564.19;5010152;28;20460;-82
2023/03/03 08:25:28;;;;;;;22.48;12.73;;;;;;;6.42;67.90;101577.78;4994033;28;20084;-82
2023/03/03 08:27:53;;;;;;;16.25;10.40;;;;;;;6.43;67.92;101553.75;4993828;28;20447;-82
2023/03/03 08:30:19;;;;;;;29.23;10.45;;;;;;;6.66;67.91;101575.66;4977434;28;20472;-82
2023/03/03 08:32:44;;;;;;;19.90;10.70;;;;;;;6.71;67.10;101572.13;4977125;28;20041;-82
2023/03/03 08:35:10;;;;;;;20.25;11.55;;;;;;;6.71;66.46;101568.72;4977697;28;20478;-82
2023/03/03 08:37:35;;;;;;;16.13;9.82;;;;;;;6.68;67.14;101561.03;4993772;28;20056;-82
2023/03/03 08:40:01;;;;;;;12.18;7.20;;;;;;;6.72;66.51;101565.25;5010159;28;20407;-82
2023/03/03 08:42:28;;;;;;;15.95;10.57;;;;;;;6.70;66.01;101554.16;4993718;28;20036;-82
2023/03/03 08:44:54;;;;;;;19.25;11.20;;;;;;;6.78;66.41;101572.84;4977546;28;20505;-83
2023/03/03 08:47:20;;;;;;;16.25;10.18;;;;;;;6.73;66.48;101551.53;4977436;28;20033;-82
2023/03/03 08:49:45;;;;;;;21.05;11.60;;;;;;;6.73;65.73;101544.66;4993325;28;20412;-82
2023/03/03 08:52:10;;;;;;;22.00;10.65;;;;;;;6.82;66.62;101561.66;4993438;28;20031;-82
2023/03/03 08:54:36;;;;;;;16.65;8.48;;;;;;;6.94;65.69;101566.56;4977345;28;20038;-82
2023/03/03 08:57:01;;;;;;;19.17;10.30;;;;;;;6.72;65.88;101532.69;5009182;28;20522;-82
2023/03/03 08:59:27;;;;;;;15.98;11.52;;;;;;;7.00;66.08;101569.03;4993241;28;20045;-82
2023/03/03 09:01:52;;;;;;;24.90;13.10;;;;;;;7.06;65.36;101570.63;5009575;28;20492;-82
2023/03/03 09:04:18;;;;;;;18.90;11.40;;;;;;;7.04;65.23;101562.94;4977263;28;20388;-82
2023/03/03 09:06:43;;;;;;;21.88;11.52;;;;;;;7.05;66.33;101553.47;5009780;28;20050;-82
2023/03/03 09:09:09;;;;;;;24.02;11.10;;;;;;;7.06;65.33;101543.16;4977189;28;20026;-82
2023/03/03 09:11:34;;;;;;;19.17;10.73;;;;;;;7.17;66.13;101551.50;4992988;28;20060;-83
2023/03/03 09:14:05;;;;;;;19.60;10.10;;;;;;;7.38;66.13;101576.00;4992584;28;20480;-82
2023/03/03 09:16:34;;;;;;;20.10;10.50;;;;;;;7.45;65.30;101571.53;5010954;28;20176;-82
2023/03/03 09:19:03;;;;;;;34.10;11.40;;;;;;;7.15;64.38;101517.25;5009732;28;20519;-82
2023/03/03 09:21:31;;;;;;;20.10;11.35;;;;;;;7.56;65.25;101569.59;4993412;28;20491;-82
2023/03/03 09:24:00;;;;;;;25.48;12.85;;;;;;;7.60;65.19;101565.22;4977669;28;20037;-82
2023/03/03 09:26:51;;;;;;;23.60;13.00;;;;;;;7.48;65.22;101559.47;4993261;28;20033;-82
2023/03/03 09:32:25;;;;;;;23.30;14.30;;;;;;;7.60;66.81;101558.34;4996521;28;20037;-82
2023/03/03 09:34:51;;;;;;;13.20;8.77;;;;;;;7.44;65.65;101550.09;4978388;28;20022;-82
2023/03/03 09:37:21;;;;;;;21.95;11.88;;;;;;;7.44;66.66;101554.41;4993350;28;20411;-82
2023/03/03 09:39:54;;;;;;;21.77;11.75;;;;;;;7.46;65.10;101553.47;4993155;28;20510;-82
2023/03/03 09:42:28;;;;;;;23.02;11.35;;;;;;;7.52;65.37;101554.25;4992725;28;20041;-82
2023/03/03 09:45:19;;;;;;;22.73;11.38;;;;;;;7.35;65.39;101523.69;5011846;28;20025;-82
2023/03/03 09:48:43;;;;;;;19.00;10.32;;;;;;;7.54;65.56;101550.75;5013518;28;20030;-82
2023/03/03 09:51:12;;;;;;;21.73;12.35;;;;;;;7.60;66.24;101553.19;4992695;28;20069;-82
2023/03/03 09:54:09;;;;;;;32.17;13.52;;;;;;;7.62;68.19;101545.44;4975864;28;20030;-82
2023/03/03 09:56:38;;;;;;;21.80;13.48;;;;;;;7.41;67.34;101537.31;5003760;28;20034;-82
2023/03/03 09:59:11;;;;;;;22.52;12.02;;;;;;;7.39;66.26;101551.94;4996667;28;20464;-82
2023/03/03 10:01:42;;;;;;;;;;;;;;;7.41;66.66;101552.75;4997139;28;20500;-82
2023/03/03 10:04:35;;;;;;;20.52;11.80;;;;;;;7.41;66.35;101541.59;5012901;28;19914;-82
2023/03/03 10:07:22;;;;;;;20.10;13.43;;;;;;;7.53;67.77;101548.22;5012365;28;20052;-82
2023/03/03 10:10:22;;;;;;;28.90;14.63;;;;;;;7.47;66.33;101539.75;5012625;28;20658;-82
2023/03/03 10:13:06;;;;;;;28.17;10.73;;;;;;;7.53;66.10;101540.50;5012688;28;20018;-82
2023/03/03 10:15:56;;;;;;;21.42;12.82;;;;;;;7.17;66.24;101491.47;4996435;28;20026;-82
2023/03/03 10:18:31;;;;;;;19.85;12.60;;;;;;;7.41;66.36;101533.88;5011154;28;20065;-82
2023/03/03 10:21:44;;;;;;;21.55;12.20;;;;;;;7.34;67.13;101524.59;4997109;28;20026;-82
2023/03/03 10:24:14;;;;;;;25.10;11.75;;;;;;;7.45;67.70;101527.78;5004391;28;20034;-82
2023/03/03 10:26:53;;;;;;;22.38;12.02;;;;;;;7.55;67.35;101526.69;5012194;28;20033;-82
2023/03/03 10:29:55;;;;;;;30.90;15.00;;;;;;;7.60;67.10;101529.19;5012497;28;20033;-82
2023/03/03 10:32:30;;;;;;;28.00;12.02;;;;;;;7.54;66.49;101525.00;5009574;28;20048;-82
2023/03/03 10:35:10;;;;;;;30.67;12.75;;;;;;;7.50;67.00;101525.97;5013612;28;20464;-82
2023/03/03 10:37:58;;;;;;;30.55;15.45;;;;;;;7.59;65.92;101515.47;5012236;28;20037;-82
2023/03/03 10:40:41;;;;;;;37.20;12.07;;;;;;;7.51;67.37;101486.44;4995810;28;20353;-82
2023/03/03 10:43:25;;;;;;;31.23;15.25;;;;;;;7.61;67.20;101508.53;5012081;28;20091;-82
2023/03/03 10:46:27;;;;;;;28.65;15.00;;;;;;;7.60;67.00;101504.28;5012137;28;20025;-82
2023/03/03 10:48:58;;;;;;;30.93;14.13;;;;;;;7.73;67.92;101492.78;5013669;28;20063;-82
2023/03/03 10:51:58;;;;;;;36.45;15.82;;;;;;;7.72;66.20;101475.66;5012169;28;20056;-83
2023/03/03 10:54:57;;;;;;;32.22;13.93;;;;;;;7.94;66.99;101490.59;4996094;28;20029;-82
2023/03/03 10:57:43;;;;;;;37.45;13.13;;;;;;;7.92;66.06;101487.22;5012701;28;20065;-82
2023/03/03 11:00:50;;;;;;;21.58;12.55;;;;;;;7.76;65.60;101466.97;4998140;28;20076;-82
2023/03/03 11:03:27;;;;;;;27.92;13.98;;;;;;;8.01;67.49;101481.84;4977225;28;20097;-82
2023/03/03 11:05:55;;;;;;;26.30;14.80;;;;;;;8.10;67.09;101476.47;5012606;28;20065;-82
2023/03/03 11:08:54;;;;;;;30.50;13.38;;;;;;;7.92;67.53;101456.28;4995244;28;20112;-83
2023/03/03 11:11:31;;;;;;;20.67;11.63;;;;;;;7.96;66.79;101447.59;5009028;28;20041;-83
2023/03/03 11:14:29;;;;;;;26.90;12.13;;;;;;;8.22;65.98;101473.56;5011613;28;20034;-82
2023/03/03 11:17:07;;;;;;;23.95;11.90;;;;;;;8.34;67.31;101468.13;5005697;28;20599;-82
2023/03/03 11:19:52;;;;;;;31.48;14.57;;;;;;;8.46;66.62;101460.97;5011577;28;20518;-83
2023/03/03 11:22:42;;;;;;;33.75;18.02;;;;;;;8.45;65.91;101441.19;4995967;28;20026;-82
2023/03/03 11:25:29;;;;;;;39.33;17.02;;;;;;;8.51;67.10;101451.34;4979691;28;20488;-83
2023/03/03 11:27:58;;;;;;;24.50;13.45;;;;;;;8.57;66.15;101457.19;4978855;28;20044;-82
2023/03/03 11:30:28;;;;;;;25.65;13.07;;;;;;;8.60;66.10;101454.53;5012634;28;20048;-82
2023/03/03 11:33:03;;;;;;;36.60;12.93;;;;;;;8.22;65.50;101414.28;5012503;28;20412;-82
2023/03/03 11:35:47;;;;;;;24.35;13.18;;;;;;;8.38;65.61;101439.69;4995240;28;20427;-82